Time;durP1;ratioP1;P1;durP2;ratioP2;P2;SDS_P1;SDS_P2;PMS_P1;PMS_P2;Temp;Humidity;BMP_temperature;BMP_pressure;BME280_temperature;BME280_humidity;BME280_pressure;Samples;Min_cycle;Max_cycle;Signal;HPM_P1;HPM_P2
2022/10/04 00:00:09;;;;;;;11.18;8.90;;;12.50;99.90;;;;;;5078445;28;20047;-75
2022/10/04 00:02:36;;;;;;;10.70;9.18;;;12.50;99.90;;;;;;5079152;28;20020;-75
2022/10/04 00:05:11;;;;;;;14.48;9.30;;;12.50;99.90;;;;;;5079047;28;20111;-74
2022/10/04 00:07:43;;;;;;;12.75;8.75;;;12.40;99.90;;;;;;5077985;28;20135;-76
2022/10/04 00:10:35;;;;;;;15.10;8.77;;;12.40;99.90;;;;;;5078775;28;20112;-74
2022/10/04 00:13:14;;;;;;;15.73;9.93;;;12.40;99.90;;;;;;5075117;28;20480;-75
2022/10/04 00:15:40;;;;;;;12.82;9.75;;;12.40;99.90;;;;;;5078338;28;20025;-74
2022/10/04 00:18:11;;;;;;;18.80;10.07;;;12.40;99.90;;;;;;5078855;28;20039;-75
2022/10/04 00:20:54;;;;;;;14.95;9.93;;;12.30;99.90;;;;;;5077511;28;20055;-76
2022/10/04 00:23:22;;;;;;;18.77;10.25;;;12.40;99.90;;;;;;5078566;28;20094;-76
2022/10/04 00:25:53;;;;;;;14.77;10.50;;;12.40;99.90;;;;;;5078419;28;20033;-77
2022/10/04 00:28:24;;;;;;;20.55;10.93;;;12.30;99.90;;;;;;5077859;28;20023;-76
2022/10/04 00:31:08;;;;;;;13.70;10.00;;;12.40;99.90;;;;;;5078380;28;20060;-76
2022/10/04 00:33:54;;;;;;;15.75;10.43;;;12.40;99.90;;;;;;5077891;28;20025;-75
2022/10/04 00:36:25;;;;;;;14.82;10.27;;;12.40;99.90;;;;;;5077560;28;20033;-76
2022/10/04 00:39:06;;;;;;;16.25;10.00;;;12.40;99.90;;;;;;5077837;28;20460;-76
2022/10/04 00:41:38;;;;;;;;;;;12.40;99.90;;;;;;5074721;28;20095;-76
2022/10/04 00:44:11;;;;;;;13.60;9.05;;;12.40;99.90;;;;;;5074926;28;19908;-76
2022/10/04 00:46:39;;;;;;;19.83;11.68;;;12.40;99.90;;;;;;5074561;28;20066;-76
2022/10/04 00:49:07;;;;;;;12.77;10.80;;;12.40;99.90;;;;;;5074179;28;20017;-76
2022/10/04 00:51:37;;;;;;;15.57;10.82;;;12.30;99.90;;;;;;5074293;28;20043;-76
2022/10/04 00:54:17;;;;;;;18.88;11.60;;;12.40;99.90;;;;;;5074715;28;20048;-75
2022/10/04 00:56:47;;;;;;;16.10;10.98;;;12.40;99.90;;;;;;5073527;28;20028;-75
2022/10/04 00:59:30;;;;;;;17.67;9.88;;;12.30;99.90;;;;;;5074793;28;20365;-76
2022/10/04 01:02:16;;;;;;;19.83;11.68;;;12.30;99.90;;;;;;5074561;28;20016;-75
2022/10/04 01:04:54;;;;;;;18.00;11.88;;;12.30;99.90;;;;;;5073989;28;20464;-76
2022/10/04 01:07:33;;;;;;;20.67;12.57;;;12.20;99.90;;;;;;5074602;28;20385;-76
2022/10/04 01:10:03;;;;;;;15.43;11.07;;;12.20;99.90;;;;;;5074043;28;20024;-76
2022/10/04 01:12:51;;;;;;;12.45;10.73;;;12.20;99.90;;;;;;5074111;28;20029;-77
2022/10/04 01:15:41;;;;;;;17.25;11.48;;;12.10;99.90;;;;;;5074870;28;20029;-76
2022/10/04 01:18:19;;;;;;;;;;;12.00;99.90;;;;;;5074466;28;20050;-75
2022/10/04 01:20:56;;;;;;;12.73;11.35;;;12.00;99.90;;;;;;5074034;28;19912;-75
2022/10/04 01:23:40;;;;;;;20.52;12.88;;;12.00;99.90;;;;;;5074270;28;20064;-76
2022/10/04 01:26:29;;;;;;;15.88;12.27;;;12.00;99.90;;;;;;5073896;28;20035;-76
2022/10/04 01:29:17;;;;;;;22.58;13.65;;;11.90;99.90;;;;;;5073950;28;20047;-76
2022/10/04 01:31:46;;;;;;;21.65;13.77;;;11.90;99.90;;;;;;5059752;28;20108;-76
2022/10/04 01:34:15;;;;;;;26.63;13.15;;;11.80;99.90;;;;;;5074016;28;20029;-74
2022/10/04 01:36:41;;;;;;;17.73;13.18;;;11.80;99.90;;;;;;5073563;28;20031;-75
2022/10/04 01:39:07;;;;;;;20.73;12.93;;;11.70;99.90;;;;;;5073301;28;20442;-75
2022/10/04 01:41:57;;;;;;;19.70;13.48;;;11.70;99.90;;;;;;5073237;28;20024;-76
2022/10/04 01:44:42;;;;;;;17.75;11.50;;;11.70;99.90;;;;;;5073911;28;20028;-75
2022/10/04 01:47:13;;;;;;;21.13;14.20;;;11.60;99.90;;;;;;5072902;28;20056;-76
2022/10/04 01:49:42;;;;;;;18.13;12.20;;;11.60;99.90;;;;;;5072289;28;20017;-76
2022/10/04 01:52:32;;;;;;;17.03;13.27;;;11.50;99.90;;;;;;5071642;28;20058;-75
2022/10/04 01:55:29;;;;;;;17.33;12.25;;;11.50;99.90;;;;;;5073509;28;20517;-75
2022/10/04 01:58:05;;;;;;;20.38;13.25;;;11.40;99.90;;;;;;5060908;28;20036;-75
2022/10/04 02:00:32;;;;;;;18.15;13.10;;;11.40;99.90;;;;;;5072557;28;20023;-75
2022/10/04 02:03:08;;;;;;;18.83;13.32;;;11.40;99.90;;;;;;5073821;28;20032;-75
2022/10/04 02:05:43;;;;;;;18.63;13.65;;;11.30;99.90;;;;;;5072683;28;20068;-76
2022/10/04 02:08:15;;;;;;;16.83;13.10;;;11.30;99.90;;;;;;5072869;28;20028;-75
2022/10/04 02:10:42;;;;;;;18.77;13.35;;;11.30;99.90;;;;;;5073634;28;20410;-74
2022/10/04 02:13:17;;;;;;;19.70;13.90;;;11.30;99.90;;;;;;5072909;28;20025;-74
2022/10/04 02:15:44;;;;;;;17.75;13.52;;;11.30;99.90;;;;;;5073344;28;20025;-74
2022/10/04 02:18:13;;;;;;;23.40;13.50;;;11.20;99.90;;;;;;5072863;28;20029;-77
2022/10/04 02:20:41;;;;;;;21.38;14.25;;;11.20;99.90;;;;;;5072562;28;20035;-75
2022/10/04 02:23:07;;;;;;;23.55;14.73;;;11.20;99.90;;;;;;5073160;28;20101;-75
2022/10/04 02:25:35;;;;;;;23.58;13.60;;;11.20;99.90;;;;;;5072740;28;20099;-75
2022/10/04 02:28:01;;;;;;;17.83;13.52;;;11.10;99.90;;;;;;5072092;28;20492;-75
2022/10/04 02:30:27;;;;;;;19.50;14.52;;;11.10;99.90;;;;;;5072513;28;20031;-75
2022/10/04 02:32:59;;;;;;;20.60;13.90;;;11.10;99.90;;;;;;5072619;28;20048;-74
2022/10/04 02:35:30;;;;;;;27.15;13.80;;;11.10;99.90;;;;;;5071749;28;20388;-74
2022/10/04 02:38:11;;;;;;;19.85;13.82;;;11.10;99.90;;;;;;5072386;28;20021;-75
2022/10/04 02:41:00;;;;;;;23.42;15.15;;;11.10;99.90;;;;;;5072621;28;20036;-75
2022/10/04 02:43:49;;;;;;;20.95;14.65;;;11.10;99.90;;;;;;5071652;28;20048;-74
2022/10/04 02:46:34;;;;;;;17.63;14.50;;;11.00;99.90;;;;;;5072066;28;20032;-74
2022/10/04 02:49:04;;;;;;;20.27;15.02;;;11.10;99.90;;;;;;5072110;28;20075;-75
2022/10/04 02:51:45;;;;;;;19.52;15.02;;;10.90;99.90;;;;;;5071804;28;20529;-74
2022/10/04 02:54:28;;;;;;;24.73;14.52;;;10.80;99.90;;;;;;5072898;28;20028;-76
2022/10/04 02:56:55;;;;;;;23.15;14.77;;;10.80;99.90;;;;;;5072088;28;20029;-75
2022/10/04 02:59:21;;;;;;;20.63;15.10;;;10.90;99.90;;;;;;5072771;28;20024;-76
2022/10/04 03:01:50;;;;;;;26.58;16.95;;;10.80;99.90;;;;;;5072205;28;20020;-76
2022/10/04 03:04:17;;;;;;;25.75;15.82;;;10.80;99.90;;;;;;5071476;28;20469;-76
2022/10/04 03:06:46;;;;;;;25.83;15.50;;;10.70;99.90;;;;;;5071893;28;20186;-76
2022/10/04 03:09:14;;;;;;;26.27;15.95;;;10.70;99.90;;;;;;5072632;28;20749;-76
2022/10/04 03:11:40;;;;;;;24.67;15.65;;;10.70;99.90;;;;;;5072019;28;20035;-76
2022/10/04 03:14:12;;;;;;;21.63;15.82;;;10.60;99.90;;;;;;5072270;28;20035;-75
2022/10/04 03:16:45;;;;;;;31.10;17.05;;;10.60;99.90;;;;;;5070974;28;20694;-74
2022/10/04 03:19:13;;;;;;;22.25;15.98;;;10.60;99.90;;;;;;5072134;28;20020;-75
2022/10/04 03:21:41;;;;;;;22.88;15.68;;;10.60;99.90;;;;;;5071847;28;20052;-74
2022/10/04 03:24:14;;;;;;;21.58;16.20;;;10.50;99.90;;;;;;5071564;28;20387;-75
2022/10/04 03:26:45;;;;;;;21.20;15.57;;;10.50;99.90;;;;;;5071960;28;20039;-75
2022/10/04 03:29:13;;;;;;;21.65;15.48;;;10.50;99.90;;;;;;5072739;28;20021;-75
2022/10/04 03:31:48;;;;;;;16.48;14.52;;;10.50;99.90;;;;;;5071402;28;20380;-75
2022/10/04 03:34:26;;;;;;;25.08;15.20;;;10.40;99.90;;;;;;5072013;28;20108;-74
2022/10/04 03:36:55;;;;;;;24.58;15.88;;;10.40;99.90;;;;;;5072068;28;20060;-75
2022/10/04 03:39:26;;;;;;;24.00;15.32;;;10.40;99.90;;;;;;5070999;28;20055;-75
2022/10/04 03:41:53;;;;;;;22.15;15.05;;;10.40;99.90;;;;;;5071581;28;20027;-76
2022/10/04 03:44:20;;;;;;;18.83;15.30;;;10.30;99.90;;;;;;5071501;28;20070;-76
2022/10/04 03:46:46;;;;;;;27.20;15.82;;;10.30;99.90;;;;;;5070784;28;20429;-76
2022/10/04 03:49:25;;;;;;;20.55;16.27;;;10.30;99.90;;;;;;5071820;28;20060;-75
2022/10/04 03:51:51;;;;;;;26.13;16.27;;;10.30;99.90;;;;;;5070929;28;20040;-75
2022/10/04 03:54:22;;;;;;;24.92;17.00;;;10.20;99.90;;;;;;5071599;28;20021;-75
2022/10/04 03:56:50;;;;;;;20.20;16.13;;;10.20;99.90;;;;;;5071308;28;20484;-75
2022/10/04 03:59:17;;;;;;;25.35;16.30;;;10.30;99.90;;;;;;5071223;28;20028;-74
2022/10/04 04:02:10;;;;;;;20.27;16.17;;;10.20;99.90;;;;;;5071492;28;20059;-75
2022/10/04 04:04:45;;;;;;;22.60;15.88;;;10.20;99.90;;;;;;5071640;28;20028;-75
2022/10/04 04:07:13;;;;;;;21.73;16.50;;;10.20;99.90;;;;;;5071330;28;20504;-76
2022/10/04 04:10:05;;;;;;;19.92;16.05;;;10.20;99.90;;;;;;5071648;28;20105;-75
2022/10/04 04:12:46;;;;;;;20.60;15.38;;;10.20;99.90;;;;;;5071841;28;20104;-75
2022/10/04 04:15:14;;;;;;;27.33;16.95;;;10.20;99.90;;;;;;5073239;28;20063;-74
2022/10/04 04:17:43;;;;;;;22.88;15.88;;;10.20;99.90;;;;;;5075435;28;20029;-74
2022/10/04 04:20:25;;;;;;;19.77;16.02;;;10.20;99.90;;;;;;5074718;28;20025;-76
2022/10/04 04:22:56;;;;;;;22.90;15.65;;;10.10;99.90;;;;;;5075281;28;20396;-75
2022/10/04 04:25:24;;;;;;;22.63;15.63;;;10.10;99.90;;;;;;5075605;28;20031;-76
2022/10/04 04:27:55;;;;;;;24.17;16.65;;;10.10;99.90;;;;;;5075090;28;20040;-75
2022/10/04 04:30:21;;;;;;;21.05;16.42;;;10.00;99.90;;;;;;5075336;28;20040;-76
2022/10/04 04:32:55;;;;;;;23.05;16.55;;;10.00;99.90;;;;;;5067982;28;20124;-76
2022/10/04 04:35:24;;;;;;;23.85;15.10;;;10.00;99.90;;;;;;5069249;28;20032;-76
2022/10/04 04:38:20;;;;;;;21.13;15.57;;;10.00;99.90;;;;;;5075221;28;20384;-75
2022/10/04 04:40:46;;;;;;;25.98;16.48;;;10.00;99.90;;;;;;5074045;28;20025;-75
2022/10/04 04:43:18;;;;;;;24.85;16.52;;;10.00;99.90;;;;;;5075017;28;20150;-76
2022/10/04 04:45:47;;;;;;;17.48;15.10;;;9.90;99.90;;;;;;5074944;28;20036;-76
2022/10/04 04:48:16;;;;;;;26.73;16.95;;;9.90;99.90;;;;;;5074169;28;20024;-75
2022/10/04 04:50:46;;;;;;;20.00;15.30;;;9.90;99.90;;;;;;5074668;28;20028;-75
2022/10/04 04:53:18;;;;;;;;;;;9.90;99.90;;;;;;5075083;28;20495;-76
2022/10/04 04:55:52;;;;;;;20.65;14.63;;;9.90;99.90;;;;;;5074134;28;19908;-75
2022/10/04 04:58:23;;;;;;;21.23;13.93;;;9.80;99.90;;;;;;5074991;28;20032;-75
2022/10/04 05:00:53;;;;;;;;;;;9.80;99.90;;;;;;5075087;28;20367;-76
2022/10/04 05:03:19;;;;;;;19.38;14.73;;;9.80;99.90;;;;;;5074295;28;19909;-74
2022/10/04 05:05:46;;;;;;;22.00;15.23;;;9.80;99.90;;;;;;5074155;28;20036;-75
2022/10/04 05:08:14;;;;;;;20.45;14.90;;;9.80;99.90;;;;;;5074734;28;20028;-75
2022/10/04 05:10:54;;;;;;;24.17;16.38;;;9.90;99.90;;;;;;5072902;28;20024;-75
2022/10/04 05:13:21;;;;;;;28.20;16.30;;;9.80;99.90;;;;;;5070065;28;20027;-76
2022/10/04 05:15:53;;;;;;;19.23;14.40;;;9.90;99.90;;;;;;5070667;28;20037;-76
2022/10/04 05:18:30;;;;;;;23.40;14.65;;;9.90;99.90;;;;;;5070304;28;20025;-75
2022/10/04 05:21:03;;;;;;;21.20;14.70;;;9.90;99.90;;;;;;5071300;28;20078;-76
2022/10/04 05:23:29;;;;;;;19.40;14.60;;;9.80;99.90;;;;;;5071180;28;20062;-75
2022/10/04 05:25:54;;;;;;;20.75;14.98;;;9.80;99.90;;;;;;5070595;28;20028;-74
2022/10/04 05:28:20;;;;;;;17.63;15.60;;;9.80;99.90;;;;;;5071003;28;20021;-75
2022/10/04 05:31:10;;;;;;;25.75;15.10;;;9.80;99.90;;;;;;5064981;28;20104;-76
2022/10/04 05:33:58;;;;;;;24.65;15.50;;;9.80;99.90;;;;;;5054012;28;20427;-75
2022/10/04 05:36:50;;;;;;;22.10;15.13;;;9.80;99.90;;;;;;5053416;28;20029;-76
2022/10/04 05:39:25;;;;;;;21.65;14.93;;;9.80;99.90;;;;;;5053402;28;20100;-74
2022/10/04 05:42:20;;;;;;;22.67;15.60;;;9.80;99.90;;;;;;5056127;28;20469;-76
2022/10/04 05:44:50;;;;;;;22.75;15.43;;;9.70;99.90;;;;;;5068554;28;20024;-76
2022/10/04 05:47:21;;;;;;;25.52;15.80;;;9.80;99.90;;;;;;5066681;28;20036;-74
2022/10/04 05:49:47;;;;;;;23.10;14.77;;;9.80;99.90;;;;;;5069017;28;20569;-75
2022/10/04 05:52:23;;;;;;;25.05;16.13;;;9.70;99.90;;;;;;5069825;28;20172;-75
2022/10/04 05:55:14;;;;;;;20.50;15.95;;;9.80;99.90;;;;;;5070377;28;20036;-75
2022/10/04 05:57:58;;;;;;;18.70;14.25;;;9.80;99.90;;;;;;5071111;28;20085;-74
2022/10/04 06:00:37;;;;;;;29.75;16.05;;;9.80;99.90;;;;;;5068926;28;20032;-76
2022/10/04 06:03:16;;;;;;;27.45;15.95;;;9.80;99.90;;;;;;5070200;28;20020;-75
2022/10/04 06:06:00;;;;;;;29.92;15.93;;;9.80;99.90;;;;;;5066513;28;20024;-75
2022/10/04 06:08:55;;;;;;;24.65;15.23;;;9.80;99.90;;;;;;5067701;28;20510;-75
2022/10/04 06:11:40;;;;;;;24.10;15.30;;;9.70;99.90;;;;;;5069564;28;20017;-75
2022/10/04 06:14:18;;;;;;;21.25;15.88;;;9.70;99.90;;;;;;5067327;28;20059;-76
2022/10/04 06:16:56;;;;;;;24.48;16.70;;;9.70;99.90;;;;;;5065421;28;20024;-76
2022/10/04 06:19:48;;;;;;;27.42;17.23;;;9.70;99.90;;;;;;5070791;28;20042;-75
2022/10/04 06:22:22;;;;;;;21.52;16.23;;;9.70;99.90;;;;;;5068827;28;20057;-75
2022/10/04 06:24:59;;;;;;;23.05;15.00;;;9.70;99.90;;;;;;5063185;28;20543;-76
2022/10/04 06:27:28;;;;;;;24.25;16.55;;;9.70;99.90;;;;;;5065940;28;20388;-78
2022/10/04 06:30:00;;;;;;;22.25;14.60;;;9.60;99.90;;;;;;5069244;28;20469;-76
2022/10/04 06:32:26;;;;;;;23.88;16.48;;;9.70;99.90;;;;;;5067955;28;20036;-76
2022/10/04 06:35:13;;;;;;;25.02;16.35;;;9.70;99.90;;;;;;5064929;28;20031;-76
2022/10/04 06:37:50;;;;;;;20.02;16.70;;;9.70;99.90;;;;;;5067818;28;20107;-75
2022/10/04 06:40:31;;;;;;;30.58;15.82;;;9.80;99.90;;;;;;5066087;28;20021;-76
2022/10/04 06:43:25;;;;;;;28.17;15.48;;;9.80;99.90;;;;;;5067989;28;20032;-77
2022/10/04 06:46:04;;;;;;;23.58;15.90;;;9.80;99.90;;;;;;5066001;28;20129;-75
2022/10/04 06:48:33;;;;;;;24.13;16.00;;;9.80;99.90;;;;;;5060676;28;20445;-75
2022/10/04 06:51:06;;;;;;;26.67;16.50;;;9.90;99.90;;;;;;5067999;28;20405;-76
2022/10/04 06:53:53;;;;;;;26.20;17.10;;;9.90;99.90;;;;;;5052115;28;20020;-77
2022/10/04 06:56:37;;;;;;;22.77;15.38;;;10.00;99.90;;;;;;5053403;28;20021;-76
2022/10/04 06:59:34;;;;;;;25.40;16.17;;;10.10;99.90;;;;;;5071784;28;20024;-75
2022/10/04 07:02:17;;;;;;;23.77;15.30;;;10.20;99.90;;;;;;5070854;28;20028;-75
2022/10/04 07:04:49;;;;;;;22.70;16.20;;;10.30;99.90;;;;;;5069386;28;20023;-76
2022/10/04 07:07:36;;;;;;;22.15;15.20;;;10.40;99.90;;;;;;5069262;28;20044;-75
2022/10/04 07:10:17;;;;;;;25.75;15.10;;;10.50;99.90;;;;;;5069201;28;20023;-76
2022/10/04 07:12:49;;;;;;;31.42;15.95;;;10.60;99.90;;;;;;5068092;28;20029;-77
2022/10/04 07:15:27;;;;;;;30.17;15.60;;;10.70;99.90;;;;;;5070331;28;20486;-76
2022/10/04 07:17:57;;;;;;;17.75;14.15;;;10.80;99.90;;;;;;5061486;28;20047;-76
2022/10/04 07:20:27;;;;;;;21.48;15.30;;;10.90;99.90;;;;;;5078124;28;20454;-76
2022/10/04 07:23:27;;;;;;;21.52;15.27;;;11.00;99.90;;;;;;5054526;28;20040;-75
2022/10/04 07:25:58;;;;;;;22.05;14.52;;;11.20;99.90;;;;;;5066421;28;20388;-76
2022/10/04 07:31:26;;;;;;;21.33;14.73;;;11.40;99.90;;;;;;5068248;28;20067;-77
2022/10/04 07:34:19;;;;;;;21.17;13.93;;;11.40;99.90;;;;;;5063287;28;20485;-79
2022/10/04 07:36:53;;;;;;;20.15;14.02;;;11.50;99.90;;;;;;5071655;28;20263;-77
2022/10/04 07:39:21;;;;;;;20.08;13.85;;;11.60;99.90;;;;;;5061034;28;20033;-76
2022/10/04 07:41:57;;;;;;;18.92;13.88;;;11.70;99.90;;;;;;5063966;28;20055;-76
2022/10/04 07:44:38;;;;;;;19.88;13.35;;;11.80;99.90;;;;;;5053677;28;20029;-76
2022/10/04 07:47:23;;;;;;;20.98;13.80;;;11.90;99.90;;;;;;5053232;28;20095;-78
2022/10/04 07:49:49;;;;;;;18.00;14.25;;;11.90;99.90;;;;;;5056070;28;20064;-76
2022/10/04 07:52:42;;;;;;;15.82;13.50;;;11.90;99.90;;;;;;5056642;28;20017;-75
2022/10/04 07:55:31;;;;;;;21.52;13.23;;;12.00;99.90;;;;;;5061644;28;20443;-76
2022/10/04 07:58:24;;;;;;;16.15;13.80;;;12.10;99.90;;;;;;5076367;28;20150;-81
2022/10/04 08:01:00;;;;;;;15.82;12.93;;;12.20;99.90;;;;;;5077310;28;20024;-80
2022/10/04 08:03:32;;;;;;;17.70;13.57;;;12.30;99.90;;;;;;5076259;28;20017;-76
2022/10/04 08:06:32;;;;;;;22.63;13.27;;;12.40;99.90;;;;;;5075285;28;20028;-74
2022/10/04 08:09:22;;;;;;;18.42;13.70;;;12.50;99.90;;;;;;5072732;28;20036;-74
2022/10/04 08:12:08;;;;;;;;;;;12.60;99.90;;;;;;5067500;28;20043;-76
2022/10/04 08:15:12;;;;;;;21.20;13.63;;;12.70;99.90;;;;;;5064524;28;19955;-77
2022/10/04 08:18:07;;;;;;;24.65;14.60;;;12.80;99.90;;;;;;5055155;28;20056;-75
2022/10/04 08:20:35;;;;;;;23.85;13.82;;;12.90;99.90;;;;;;5056715;28;20090;-74
2022/10/04 08:23:27;;;;;;;16.17;12.80;;;13.00;99.90;;;;;;5068144;28;20041;-76
2022/10/04 08:26:01;;;;;;;19.30;12.98;;;13.00;99.90;;;;;;5042540;28;20040;-76
2022/10/04 08:32:05;;;;;;;15.75;12.95;;;13.00;99.90;;;;;;5067412;28;20648;-77
2022/10/04 08:35:06;;;;;;;22.63;13.65;;;13.00;99.90;;;;;;5068960;28;20032;-76
2022/10/04 08:38:05;;;;;;;20.05;12.65;;;13.00;99.90;;;;;;5069713;28;20047;-76
2022/10/04 08:41:05;;;;;;;18.98;13.27;;;13.00;99.90;;;;;;5066495;28;20044;-75
2022/10/04 08:43:44;;;;;;;22.60;12.35;;;13.10;99.90;;;;;;5069485;28;20067;-77
2022/10/04 08:46:51;;;;;;;18.73;12.43;;;13.10;99.90;;;;;;5069396;28;20033;-75
2022/10/04 08:49:34;;;;;;;16.58;12.30;;;13.20;99.90;;;;;;5068478;28;20028;-77
2022/10/04 08:52:22;;;;;;;13.75;12.18;;;13.30;99.90;;;;;;5070905;28;20051;-76
2022/10/04 08:55:33;;;;;;;16.00;12.75;;;13.40;99.90;;;;;;5068837;28;20430;-76
2022/10/04 08:58:14;;;;;;;20.08;12.77;;;13.50;99.90;;;;;;5070274;28;20063;-76
2022/10/04 09:00:55;;;;;;;18.85;12.52;;;13.50;99.90;;;;;;5066260;28;20028;-76
2022/10/04 09:04:01;;;;;;;16.17;12.43;;;13.60;99.90;;;;;;5062933;28;20520;-76
2022/10/04 09:06:43;;;;;;;15.70;12.55;;;13.60;99.90;;;;;;4996574;28;20037;-75
2022/10/04 09:09:33;;;;;;;17.33;12.40;;;13.60;99.90;;;;;;5064393;28;20025;-77
2022/10/04 09:12:11;;;;;;;13.95;12.48;;;13.60;99.90;;;;;;5070487;28;20025;-77
2022/10/04 09:15:06;;;;;;;17.65;12.18;;;13.70;99.90;;;;;;5070165;28;20033;-76
2022/10/04 09:17:53;;;;;;;22.75;12.85;;;13.70;99.90;;;;;;5069223;28;20062;-78
2022/10/04 09:20:32;;;;;;;18.15;12.43;;;13.70;99.90;;;;;;5065315;28;20484;-75
2022/10/04 09:23:36;;;;;;;21.02;12.55;;;13.80;99.90;;;;;;5076021;28;20097;-75
2022/10/04 09:26:10;;;;;;;16.80;11.98;;;13.90;99.90;;;;;;5074815;28;20491;-76
2022/10/04 09:28:48;;;;;;;19.17;13.35;;;14.00;99.90;;;;;;5069506;28;20070;-75
2022/10/04 09:31:26;;;;;;;22.55;12.30;;;14.00;99.90;;;;;;5069370;28;20435;-78
2022/10/04 09:34:29;;;;;;;20.42;11.52;;;14.00;99.90;;;;;;5067502;28;20654;-77
2022/10/04 09:37:13;;;;;;;16.27;11.05;;;14.10;99.90;;;;;;5070380;28;20056;-76
2022/10/04 09:40:24;;;;;;;15.82;11.32;;;14.20;99.90;;;;;;5066282;28;21399;-77
2022/10/04 09:43:27;;;;;;;18.83;10.85;;;14.30;99.90;;;;;;5051014;28;20028;-77
2022/10/04 09:46:27;;;;;;;19.02;11.25;;;14.50;99.90;;;;;;5070434;28;20024;-77
2022/10/04 09:49:17;;;;;;;20.17;10.70;;;14.50;99.90;;;;;;5070305;28;20027;-77
2022/10/04 09:52:20;;;;;;;13.88;10.18;;;14.60;99.90;;;;;;5066920;28;20104;-78
2022/10/04 09:55:10;;;;;;;19.92;12.05;;;14.60;99.90;;;;;;5064828;28;20039;-77
2022/10/04 09:57:54;;;;;;;12.60;10.70;;;14.70;99.90;;;;;;5068285;28;20025;-77
2022/10/04 10:00:23;;;;;;;13.30;9.90;;;14.70;99.90;;;;;;5071804;28;20263;-78
2022/10/04 10:03:19;;;;;;;22.48;10.52;;;14.80;99.90;;;;;;5071586;28;20063;-78
2022/10/04 10:06:03;;;;;;;13.30;9.32;;;14.90;99.90;;;;;;5068080;28;20036;-77
2022/10/04 10:08:43;;;;;;;13.80;9.75;;;15.00;99.90;;;;;;5069506;28;20370;-77
2022/10/04 10:14:58;;;;;;;14.70;9.38;;;15.20;99.90;;;;;;5068270;28;20392;-77
2022/10/04 10:17:44;;;;;;;14.27;8.75;;;15.30;99.90;;;;;;5069925;28;20498;-78
2022/10/04 10:20:40;;;;;;;15.18;9.65;;;15.30;99.90;;;;;;5068449;28;20388;-76
2022/10/04 10:23:36;;;;;;;16.23;11.50;;;15.20;99.90;;;;;;5071491;28;20074;-76
2022/10/04 10:27:00;;;;;;;14.80;11.00;;;15.20;99.90;;;;;;5065730;28;20041;-78
2022/10/04 10:29:45;;;;;;;15.80;9.85;;;15.20;99.90;;;;;;5054932;28;20481;-77
2022/10/04 10:32:32;;;;;;;14.27;10.38;;;15.30;99.90;;;;;;5067889;28;20081;-77
2022/10/04 10:35:09;;;;;;;15.93;9.65;;;15.40;99.90;;;;;;5067839;28;20021;-76
2022/10/04 10:37:34;;;;;;;17.00;10.02;;;15.50;99.90;;;;;;5065505;28;20020;-78
2022/10/04 10:40:22;;;;;;;9.88;8.68;;;15.60;99.90;;;;;;5066123;28;20032;-77
2022/10/04 10:42:54;;;;;;;15.90;9.45;;;15.70;99.90;;;;;;5065503;28;20101;-76
2022/10/04 10:45:22;;;;;;;13.68;9.63;;;15.80;99.90;;;;;;5066976;28;20103;-77
2022/10/04 10:48:25;;;;;;;13.90;10.15;;;15.90;99.90;;;;;;5065639;28;20032;-76
2022/10/04 10:51:02;;;;;;;16.95;9.77;;;16.00;99.90;;;;;;5062936;28;20024;-77
2022/10/04 10:54:05;;;;;;;13.60;9.43;;;16.00;99.90;;;;;;5067421;28;20488;-75
2022/10/04 10:56:35;;;;;;;13.40;10.07;;;16.10;99.90;;;;;;5065964;28;20020;-76
2022/10/04 10:59:17;;;;;;;14.50;9.27;;;16.00;99.90;;;;;;5066727;28;20545;-76
2022/10/04 11:02:20;;;;;;;15.60;9.63;;;16.00;99.90;;;;;;5063913;28;20032;-76
2022/10/04 11:04:53;;;;;;;16.10;8.80;;;15.90;99.90;;;;;;5066385;28;20024;-74
2022/10/04 11:07:50;;;;;;;12.77;9.20;;;15.90;99.90;;;;;;5068391;28;20881;-75
2022/10/04 11:10:40;;;;;;;13.95;9.63;;;16.00;99.90;;;;;;5066927;28;20031;-75
2022/10/04 11:13:53;;;;;;;12.25;9.52;;;16.20;99.90;;;;;;5071921;28;20016;-76
2022/10/04 11:16:46;;;;;;;14.18;9.63;;;16.30;99.90;;;;;;5068488;28;20032;-75
2022/10/04 11:19:36;;;;;;;14.23;9.10;;;16.50;99.90;;;;;;5068521;28;20068;-76
2022/10/04 11:22:26;;;;;;;15.15;8.25;;;16.80;99.90;;;;;;5069489;28;20420;-76
2022/10/04 11:24:51;;;;;;;16.00;9.27;;;16.90;99.90;;;;;;5067007;28;20105;-76
2022/10/04 11:27:49;;;;;;;12.70;9.35;;;17.00;99.90;;;;;;5064856;28;20123;-75
2022/10/04 11:30:53;;;;;;;11.43;7.97;;;17.20;99.90;;;;;;5051803;28;20039;-76
2022/10/04 11:33:19;;;;;;;14.48;9.27;;;17.30;99.90;;;;;;5068388;28;20025;-75
2022/10/04 11:36:14;;;;;;;11.90;8.25;;;17.30;99.90;;;;;;5066435;28;20044;-75
2022/10/04 11:39:03;;;;;;;11.43;8.70;;;17.30;99.90;;;;;;5060763;28;20166;-77
2022/10/04 11:42:16;;;;;;;14.15;9.98;;;17.40;99.90;;;;;;5069212;28;20024;-75
2022/10/04 11:45:16;;;;;;;11.48;9.25;;;17.50;99.90;;;;;;5066966;28;20507;-77
2022/10/04 11:47:44;;;;;;;13.80;10.30;;;17.50;99.90;;;;;;5067167;28;20481;-75
2022/10/04 11:50:40;;;;;;;15.00;10.23;;;17.50;99.90;;;;;;5068529;28;20878;-76
2022/10/04 11:53:34;;;;;;;21.45;9.90;;;17.50;99.90;;;;;;5056980;28;20138;-76
2022/10/04 11:56:12;;;;;;;8.85;7.90;;;17.60;99.90;;;;;;5052134;28;20082;-78
2022/10/04 11:59:07;;;;;;;13.77;9.60;;;17.60;99.90;;;;;;5057211;28;20028;-76
2022/10/04 12:01:48;;;;;;;11.00;8.18;;;17.70;99.90;;;;;;5072532;28;20059;-76
2022/10/04 12:04:47;;;;;;;10.05;8.13;;;17.70;99.90;;;;;;5069132;28;20016;-75
2022/10/04 12:07:25;;;;;;;14.07;9.18;;;17.80;99.90;;;;;;5066397;28;20033;-76
2022/10/04 12:10:22;;;;;;;9.27;7.20;;;17.80;99.90;;;;;;5065642;28;20350;-75
2022/10/04 12:12:51;;;;;;;9.15;7.13;;;17.80;99.90;;;;;;5065538;28;20576;-76
2022/10/04 12:15:41;;;;;;;10.63;6.22;;;17.80;99.90;;;;;;5066612;28;20021;-74
2022/10/04 12:18:56;;;;;;;9.57;7.20;;;17.80;99.90;;;;;;5061300;28;20025;-76
2022/10/04 12:21:42;;;;;;;9.00;6.63;;;17.80;99.90;;;;;;5051197;28;20032;-76
2022/10/04 12:24:13;;;;;;;10.30;6.75;;;17.80;99.90;;;;;;5056406;28;20087;-76
2022/10/04 12:27:03;;;;;;;13.20;7.68;;;17.90;99.90;;;;;;5050475;28;20111;-77
2022/10/04 12:29:35;;;;;;;10.98;6.90;;;17.90;99.90;;;;;;5061111;28;20032;-74
2022/10/04 12:32:14;;;;;;;11.48;7.15;;;18.00;99.90;;;;;;5054585;28;20033;-74
2022/10/04 12:34:47;;;;;;;10.25;6.20;;;18.00;99.90;;;;;;5050954;28;20021;-75
2022/10/04 12:37:19;;;;;;;8.73;5.85;;;17.90;99.90;;;;;;5053484;28;20013;-75
2022/10/04 12:40:11;;;;;;;8.20;6.10;;;18.00;99.90;;;;;;5053947;28;20028;-75
2022/10/04 12:43:03;;;;;;;13.90;7.47;;;18.00;99.90;;;;;;5050627;28;20036;-75
2022/10/04 12:46:06;;;;;;;10.55;6.72;;;18.10;99.90;;;;;;5053458;28;20032;-75
2022/10/04 12:48:38;;;;;;;10.52;6.97;;;18.20;99.90;;;;;;5053564;28;20028;-74
2022/10/04 12:51:31;;;;;;;11.70;7.45;;;18.20;99.90;;;;;;5053883;28;20486;-75
2022/10/04 12:54:16;;;;;;;8.27;6.57;;;18.20;99.90;;;;;;5053957;28;20032;-74
2022/10/04 12:57:03;;;;;;;8.45;6.53;;;18.30;99.90;;;;;;5058559;28;20020;-75
2022/10/04 12:59:46;;;;;;;11.20;7.75;;;18.40;99.90;;;;;;5075301;28;20056;-75
2022/10/04 13:02:41;;;;;;;13.02;6.85;;;18.40;99.90;;;;;;5077391;28;20380;-75
2022/10/04 13:05:18;;;;;;;9.23;6.85;;;18.50;99.90;;;;;;5075295;28;20547;-76
2022/10/04 13:08:05;;;;;;;10.93;6.32;;;18.60;99.90;;;;;;5074365;28;20046;-75
2022/10/04 13:11:06;;;;;;;10.98;5.63;;;18.70;99.90;;;;;;5060347;28;20465;-74
2022/10/04 13:13:49;;;;;;;6.53;5.78;;;18.80;99.90;;;;;;5074277;28;20028;-75
2022/10/04 13:16:55;;;;;;;9.25;7.10;;;18.90;99.90;;;;;;5073552;28;20024;-74
2022/10/04 13:19:23;;;;;;;7.00;5.80;;;18.90;99.90;;;;;;5062849;28;20024;-74
2022/10/04 13:22:00;;;;;;;10.77;5.88;;;19.00;99.90;;;;;;5073081;28;20075;-76
2022/10/04 13:24:59;;;;;;;7.80;5.97;;;19.00;99.90;;;;;;5074364;28;20083;-75
2022/10/04 13:27:40;;;;;;;8.65;6.07;;;19.10;99.90;;;;;;5073769;28;20032;-74
2022/10/04 13:30:14;;;;;;;9.85;6.03;;;19.10;99.90;;;;;;5073305;28;20111;-75
2022/10/04 13:32:52;;;;;;;18.02;6.95;;;19.20;99.90;;;;;;5073884;28;20032;-76
2022/10/04 13:35:35;;;;;;;9.93;6.20;;;19.30;99.90;;;;;;5073461;28;20157;-75
2022/10/04 13:38:23;;;;;;;10.20;6.10;;;19.40;99.90;;;;;;5062305;28;20035;-74
2022/10/04 13:41:02;;;;;;;7.43;5.97;;;19.40;99.90;;;;;;5073692;28;20012;-74
2022/10/04 13:43:50;;;;;;;8.82;6.53;;;19.50;99.90;;;;;;5073281;28;20020;-75
2022/10/04 13:46:31;;;;;;;11.63;7.88;;;19.60;99.90;;;;;;5059804;28;20024;-75
2022/10/04 13:49:06;;;;;;;;;;;19.70;99.90;;;;;;5074364;28;20029;-75